createdAt,value
2022-07-26T00:01:21.996Z,23.23
2022-07-26T00:03:49.454Z,23.24
2022-07-26T00:06:16.582Z,23.16
2022-07-26T00:08:45.738Z,23.12
2022-07-26T00:11:12.768Z,23.19
2022-07-26T00:13:39.863Z,23.17
2022-07-26T00:16:06.650Z,23.24
2022-07-26T00:18:33.580Z,23.15
2022-07-26T00:21:00.365Z,23.09
2022-07-26T00:23:27.978Z,23.19
2022-07-26T00:25:54.721Z,23.12
2022-07-26T00:28:21.643Z,23.08
2022-07-26T00:30:48.303Z,23.12
2022-07-26T00:33:15.230Z,23.05
2022-07-26T00:35:41.891Z,23.16
2022-07-26T00:38:08.592Z,23.11
2022-07-26T00:40:35.952Z,23.13
2022-07-26T00:43:02.678Z,23.13
2022-07-26T00:45:29.542Z,23.05
2022-07-26T00:47:56.270Z,23.11
2022-07-26T00:50:22.981Z,23.06
2022-07-26T00:52:50.096Z,23.12
2022-07-26T00:55:17.457Z,23.02
2022-07-26T00:57:44.413Z,23.02
2022-07-26T01:00:12.977Z,22.95
2022-07-26T01:02:39.752Z,23.05
2022-07-26T01:05:07.149Z,22.96
2022-07-26T01:07:34.090Z,22.98
2022-07-26T01:10:01.933Z,23.05
2022-07-26T01:12:28.590Z,23.00
2022-07-26T01:14:55.271Z,23.07
2022-07-26T01:17:21.917Z,23.08
2022-07-26T01:19:48.562Z,22.99
2022-07-26T01:22:15.574Z,22.91
2022-07-26T01:24:42.659Z,22.96
2022-07-26T01:27:09.370Z,23.02
2022-07-26T01:29:36.420Z,23.04
2022-07-26T01:32:05.192Z,23.02
2022-07-26T01:34:32.156Z,23.01
2022-07-26T01:36:58.876Z,22.98
2022-07-26T01:39:25.493Z,23.00
2022-07-26T01:41:53.399Z,23.00
2022-07-26T01:44:20.274Z,22.98
2022-07-26T01:46:46.981Z,23.02
2022-07-26T01:49:13.697Z,23.05
2022-07-26T01:51:40.398Z,23.04
2022-07-26T01:54:07.482Z,22.99
2022-07-26T01:56:34.385Z,22.95
2022-07-26T01:59:01.175Z,22.94
2022-07-26T02:01:39.058Z,22.91
2022-07-26T02:04:07.444Z,22.96
2022-07-26T02:06:34.431Z,23.07
2022-07-26T02:09:01.907Z,22.99
2022-07-26T02:11:29.081Z,22.98
2022-07-26T02:13:55.710Z,22.99
2022-07-26T02:16:22.446Z,22.97
2022-07-26T02:18:49.190Z,22.93
2022-07-26T02:21:15.819Z,23.04
2022-07-26T02:23:42.616Z,22.92
2022-07-26T02:26:09.363Z,22.94
2022-07-26T02:28:36.111Z,22.88
2022-07-26T02:31:03.027Z,22.95
2022-07-26T02:33:29.742Z,22.91
2022-07-26T02:35:56.477Z,22.99
2022-07-26T02:38:23.119Z,22.93
2022-07-26T02:40:52.911Z,23.01
2022-07-26T02:43:20.103Z,23.01
2022-07-26T02:46:01.962Z,22.99
2022-07-26T02:48:31.063Z,22.89
2022-07-26T02:50:57.895Z,22.94
2022-07-26T02:53:24.531Z,22.94
2022-07-26T02:55:51.223Z,22.97
2022-07-26T02:58:17.991Z,22.86
2022-07-26T03:00:44.753Z,22.88
2022-07-26T03:05:41.147Z,22.90
2022-07-26T03:08:07.816Z,22.90
2022-07-26T03:10:34.547Z,22.89
2022-07-26T03:13:01.248Z,22.85
2022-07-26T03:15:28.020Z,22.90
2022-07-26T03:17:55.507Z,22.94
2022-07-26T03:20:22.181Z,22.83
2022-07-26T03:22:48.901Z,22.87
2022-07-26T03:25:15.582Z,22.86
2022-07-26T03:27:42.229Z,22.80
2022-07-26T03:30:09.188Z,22.92
2022-07-26T03:32:35.852Z,22.85
2022-07-26T03:35:02.566Z,22.89
2022-07-26T03:37:45.793Z,22.83
2022-07-26T03:40:13.331Z,22.90
2022-07-26T03:42:40.137Z,22.84
2022-07-26T03:45:07.121Z,22.85
2022-07-26T03:47:33.841Z,22.84
2022-07-26T03:50:00.561Z,22.85
2022-07-26T03:52:27.200Z,22.82
2022-07-26T03:54:53.857Z,22.82
2022-07-26T03:57:20.572Z,22.90
2022-07-26T03:59:47.205Z,22.82
2022-07-26T04:02:13.923Z,22.90
2022-07-26T04:04:40.684Z,22.91
2022-07-26T04:07:09.410Z,22.78
2022-07-26T04:09:36.254Z,22.89
2022-07-26T04:12:03.139Z,22.76
2022-07-26T04:14:30.013Z,22.82
2022-07-26T04:16:56.857Z,22.73
2022-07-26T04:19:32.144Z,22.77
2022-07-26T04:21:59.088Z,22.82
2022-07-26T04:24:26.017Z,22.85
2022-07-26T04:26:52.856Z,22.78
2022-07-26T04:29:25.991Z,22.78
2022-07-26T04:31:53.077Z,22.83
2022-07-26T04:34:19.865Z,22.83
2022-07-26T04:36:46.664Z,22.70
2022-07-26T04:39:13.454Z,22.69
2022-07-26T04:41:40.416Z,22.66
2022-07-26T04:44:07.442Z,22.74
2022-07-26T04:46:34.574Z,22.70
2022-07-26T04:49:01.465Z,22.78
2022-07-26T04:51:28.327Z,22.73
2022-07-26T04:53:55.086Z,22.74
2022-07-26T04:56:21.942Z,22.76
2022-07-26T04:58:48.726Z,22.74
2022-07-26T05:01:15.544Z,22.72
2022-07-26T05:03:42.429Z,22.73
2022-07-26T05:06:09.600Z,22.89
2022-07-26T05:08:36.420Z,22.76
2022-07-26T05:11:04.402Z,22.78
2022-07-26T05:13:31.282Z,22.73
2022-07-26T05:15:59.512Z,22.81
2022-07-26T05:18:26.825Z,22.75
2022-07-26T05:20:53.534Z,22.74
2022-07-26T05:23:20.726Z,22.79
2022-07-26T05:25:47.911Z,22.75
2022-07-26T05:28:14.942Z,22.69
2022-07-26T05:30:41.822Z,22.72
2022-07-26T05:33:08.763Z,22.80
2022-07-26T05:35:35.588Z,22.70
2022-07-26T05:38:02.592Z,22.71
2022-07-26T05:40:29.287Z,22.70
2022-07-26T05:42:56.008Z,22.59
2022-07-26T05:45:22.763Z,22.57
2022-07-26T05:47:50.572Z,22.60
2022-07-26T05:50:17.375Z,22.58
2022-07-26T05:52:44.402Z,22.62
2022-07-26T05:55:11.068Z,22.65
2022-07-26T05:57:41.653Z,22.65
2022-07-26T06:00:09.177Z,22.69
2022-07-26T06:02:35.945Z,22.56
2022-07-26T06:05:02.905Z,22.64
2022-07-26T06:07:29.517Z,22.61
2022-07-26T06:09:56.570Z,22.53
2022-07-26T06:12:23.227Z,22.55
2022-07-26T06:14:49.952Z,22.53
2022-07-26T06:17:16.883Z,22.60
2022-07-26T06:19:47.602Z,22.55
2022-07-26T06:22:14.962Z,22.68
2022-07-26T06:24:41.645Z,22.64
2022-07-26T06:27:08.394Z,22.70
2022-07-26T06:29:35.089Z,22.54
2022-07-26T06:32:01.922Z,22.58
2022-07-26T06:34:28.984Z,22.58
2022-07-26T06:36:55.750Z,22.57
2022-07-26T06:39:34.665Z,22.49
2022-07-26T06:42:01.623Z,22.46
2022-07-26T06:44:28.341Z,22.49
2022-07-26T06:46:55.289Z,22.47
2022-07-26T06:49:35.912Z,22.55
2022-07-26T06:52:03.040Z,22.48
2022-07-26T06:54:29.970Z,22.51
2022-07-26T06:56:57.167Z,22.59
2022-07-26T06:59:33.960Z,22.55
2022-07-26T07:02:02.112Z,22.54
2022-07-26T07:04:30.036Z,22.59
2022-07-26T07:06:58.427Z,22.62
2022-07-26T07:09:33.195Z,22.60
2022-07-26T07:12:08.786Z,22.58
2022-07-26T07:14:38.007Z,22.56
2022-07-26T07:17:12.073Z,22.53
2022-07-26T07:19:42.468Z,22.56
2022-07-26T07:22:12.657Z,22.62
2022-07-26T07:24:40.205Z,22.61
2022-07-26T07:27:06.922Z,22.57
2022-07-26T07:29:37.535Z,22.57
2022-07-26T07:32:05.086Z,22.67
2022-07-26T07:34:32.817Z,22.56
2022-07-26T07:37:00.351Z,22.66
2022-07-26T07:39:38.758Z,22.66
2022-07-26T07:42:07.135Z,22.65
2022-07-26T07:44:34.304Z,22.61
2022-07-26T07:47:02.525Z,22.59
2022-07-26T07:49:37.977Z,22.66
2022-07-26T07:52:05.978Z,22.58
2022-07-26T07:54:33.100Z,22.62
2022-07-26T07:56:59.831Z,22.66
2022-07-26T07:59:37.056Z,22.61
2022-07-26T08:02:06.524Z,22.62
2022-07-26T08:04:33.632Z,22.67
2022-07-26T08:07:00.335Z,22.61
2022-07-26T08:09:35.383Z,22.66
2022-07-26T08:12:03.132Z,22.71
2022-07-26T08:14:30.428Z,22.71
2022-07-26T08:16:57.288Z,22.70
2022-07-26T08:19:41.685Z,22.65
2022-07-26T08:22:09.174Z,22.68
2022-07-26T08:24:36.115Z,22.66
2022-07-26T08:27:02.869Z,22.65
2022-07-26T08:29:35.507Z,22.66
2022-07-26T08:32:02.278Z,22.67
2022-07-26T08:34:29.015Z,22.84
2022-07-26T08:37:16.085Z,22.66
2022-07-26T08:39:42.611Z,22.74
2022-07-26T08:42:13.287Z,22.69
2022-07-26T08:44:41.981Z,22.73
2022-07-26T08:47:10.701Z,22.70
2022-07-26T08:49:39.109Z,22.77
2022-07-26T08:52:06.072Z,22.79
2022-07-26T08:54:33.678Z,22.72
2022-07-26T08:57:00.841Z,22.74
2022-07-26T08:59:35.953Z,22.70
2022-07-26T09:02:04.265Z,22.76
2022-07-26T09:04:33.237Z,22.72
2022-07-26T09:07:08.359Z,22.71
2022-07-26T09:09:37.337Z,22.79
2022-07-26T09:12:14.875Z,22.80
2022-07-26T09:14:41.984Z,22.76
2022-07-26T09:17:08.702Z,22.75
2022-07-26T09:19:36.905Z,22.77
2022-07-26T09:22:10.188Z,22.78
2022-07-26T09:24:47.115Z,22.76
2022-07-26T09:27:15.691Z,22.79
2022-07-26T09:29:46.826Z,22.77
2022-07-26T09:32:17.383Z,22.78
2022-07-26T09:34:53.009Z,22.79
2022-07-26T09:37:32.917Z,22.78
2022-07-26T09:40:00.576Z,22.79
2022-07-26T09:42:29.513Z,22.80
2022-07-26T09:44:57.522Z,22.79
2022-07-26T09:47:36.218Z,22.77
2022-07-26T09:50:18.193Z,22.81
2022-07-26T09:53:02.396Z,22.87
2022-07-26T09:55:39.284Z,22.85
2022-07-26T09:58:14.399Z,22.79
2022-07-26T10:00:41.664Z,22.86
2022-07-26T10:03:08.854Z,22.79
2022-07-26T10:05:36.648Z,22.81
2022-07-26T10:08:03.511Z,22.85
2022-07-26T10:10:30.323Z,22.83
2022-07-26T10:12:58.098Z,22.81
2022-07-26T10:15:35.826Z,22.90
2022-07-26T10:18:03.359Z,22.88
2022-07-26T10:20:40.442Z,22.85
2022-07-26T10:25:34.185Z,22.84
2022-07-26T10:28:00.898Z,22.83
2022-07-26T10:30:34.480Z,22.90
2022-07-26T10:33:03.283Z,22.89
2022-07-26T10:35:41.999Z,22.89
2022-07-26T10:38:10.639Z,22.91
2022-07-26T10:40:38.629Z,22.91
2022-07-26T10:43:40.266Z,22.90
2022-07-26T10:46:13.596Z,22.92
2022-07-26T10:49:00.892Z,22.84
2022-07-26T10:51:29.851Z,22.84
2022-07-26T10:54:01.078Z,22.91
2022-07-26T10:56:32.858Z,22.92
2022-07-26T10:59:00.645Z,22.87
2022-07-26T11:01:34.606Z,22.88
2022-07-26T11:04:02.134Z,22.83
2022-07-26T11:06:33.216Z,22.94
2022-07-26T11:09:09.668Z,22.92
2022-07-26T11:11:36.444Z,22.95
2022-07-26T11:14:13.884Z,22.92
2022-07-26T11:16:42.705Z,22.92
2022-07-26T11:19:28.258Z,22.89
2022-07-26T11:21:57.510Z,22.96
2022-07-26T11:24:24.410Z,22.94
2022-07-26T11:26:51.333Z,22.95
2022-07-26T11:29:39.025Z,22.94
2022-07-26T11:32:18.050Z,22.98
2022-07-26T11:34:45.923Z,22.97
2022-07-26T11:37:13.565Z,22.96
2022-07-26T11:39:46.762Z,22.93
2022-07-26T11:42:15.313Z,22.92
2022-07-26T11:44:46.261Z,22.90
2022-07-26T11:47:13.828Z,22.93
2022-07-26T11:50:00.072Z,22.94
2022-07-26T11:52:32.119Z,22.99
2022-07-26T11:54:59.728Z,22.91
2022-07-26T11:57:31.078Z,22.92
2022-07-26T11:59:58.665Z,22.94
2022-07-26T12:02:26.579Z,22.92
2022-07-26T12:05:13.115Z,22.88
2022-07-26T12:07:52.572Z,22.90
2022-07-26T12:10:19.748Z,22.97
2022-07-26T12:12:47.115Z,23.00
2022-07-26T12:15:15.837Z,22.97
2022-07-26T12:18:02.890Z,23.05
2022-07-26T12:20:30.130Z,22.97
2022-07-26T12:23:06.616Z,23.00
2022-07-26T12:25:36.308Z,23.02
2022-07-26T12:28:03.214Z,23.02
2022-07-26T12:30:35.193Z,22.91
2022-07-26T12:33:02.424Z,22.96
2022-07-26T12:35:32.462Z,22.95
2022-07-26T12:37:59.743Z,23.02
2022-07-26T12:40:27.606Z,23.03
2022-07-26T12:43:00.818Z,22.91
2022-07-26T12:45:29.182Z,23.03
2022-07-26T12:47:56.895Z,22.98
2022-07-26T12:50:25.248Z,22.95
2022-07-26T12:52:52.581Z,22.89
2022-07-26T12:55:21.777Z,22.95
2022-07-26T12:57:49.673Z,22.94
2022-07-26T13:00:24.415Z,22.97
2022-07-26T13:02:56.171Z,23.02
2022-07-26T13:05:23.799Z,22.94
2022-07-26T13:07:52.378Z,22.93
2022-07-26T13:10:32.931Z,22.94
2022-07-26T13:13:00.875Z,22.98
2022-07-26T13:15:37.335Z,22.95
2022-07-26T13:20:31.649Z,22.90
2022-07-26T13:23:00.436Z,22.86
2022-07-26T13:25:28.952Z,22.85
2022-07-26T13:30:27.912Z,22.89
2022-07-26T13:32:54.660Z,22.90
2022-07-26T13:35:21.337Z,22.85
2022-07-26T13:37:48.302Z,22.92
2022-07-26T13:40:15.327Z,22.94
2022-07-26T13:42:42.040Z,22.94
2022-07-26T13:45:08.989Z,22.91
2022-07-26T13:47:35.692Z,22.97
2022-07-26T13:50:03.613Z,22.98
2022-07-26T13:52:30.259Z,22.99
2022-07-26T13:54:56.925Z,23.01
2022-07-26T13:57:23.572Z,22.99
2022-07-26T14:00:11.060Z,22.97
2022-07-26T14:02:38.185Z,23.02
2022-07-26T14:05:05.041Z,23.00
2022-07-26T14:07:31.724Z,23.01
2022-07-26T14:09:58.431Z,23.01
2022-07-26T14:12:25.452Z,23.00
2022-07-26T14:14:52.474Z,23.01
2022-07-26T14:17:19.208Z,23.00
2022-07-26T14:19:45.881Z,23.02
2022-07-26T14:22:14.043Z,23.01
2022-07-26T14:24:41.158Z,23.04
2022-07-26T14:27:07.837Z,23.05
2022-07-26T14:29:36.940Z,23.07
2022-07-26T14:32:04.058Z,23.12
2022-07-26T14:34:30.858Z,23.10
2022-07-26T14:36:57.559Z,23.13
2022-07-26T14:39:34.722Z,23.14
2022-07-26T14:42:01.701Z,23.17
2022-07-26T14:44:29.064Z,23.17
2022-07-26T14:46:55.711Z,23.17
2022-07-26T14:49:34.084Z,23.19
2022-07-26T14:52:01.248Z,23.19
2022-07-26T14:54:27.936Z,23.17
2022-07-26T14:56:54.658Z,23.19
2022-07-26T14:59:33.760Z,23.17
2022-07-26T15:02:05.230Z,23.19
2022-07-26T15:04:32.434Z,23.21
2022-07-26T15:06:59.759Z,23.17
2022-07-26T15:09:35.151Z,23.25
2022-07-26T15:12:02.214Z,23.23
2022-07-26T15:14:29.383Z,23.18
2022-07-26T15:16:56.151Z,23.19
2022-07-26T15:19:35.703Z,23.24
2022-07-26T15:22:02.931Z,23.30
2022-07-26T15:24:29.637Z,23.36
2022-07-26T15:26:56.497Z,23.26
2022-07-26T15:29:34.636Z,23.27
2022-07-26T15:32:01.709Z,23.20
2022-07-26T15:34:28.521Z,23.23
2022-07-26T15:36:55.234Z,23.17
2022-07-26T15:39:31.288Z,23.23
2022-07-26T15:42:05.446Z,23.16
2022-07-26T15:44:34.358Z,23.23
2022-07-26T15:47:01.059Z,23.24
2022-07-26T15:49:31.960Z,23.34
2022-07-26T15:51:59.309Z,23.29
2022-07-26T15:54:26.716Z,23.29
2022-07-26T15:56:53.421Z,23.22
2022-07-26T15:59:28.445Z,23.28
2022-07-26T16:01:55.134Z,23.26
2022-07-26T16:04:21.828Z,23.22
2022-07-26T16:06:48.618Z,23.17
2022-07-26T16:09:17.851Z,23.22
2022-07-26T16:11:49.148Z,23.14
2022-07-26T16:14:16.713Z,23.25
2022-07-26T16:16:44.201Z,23.17
2022-07-26T16:19:11.658Z,23.23
2022-07-26T16:21:38.867Z,23.27
2022-07-26T16:24:07.500Z,23.31
2022-07-26T16:26:35.038Z,23.29
2022-07-26T16:29:02.381Z,23.30
2022-07-26T16:31:29.934Z,23.24
2022-07-26T16:33:56.985Z,23.21
2022-07-26T16:36:24.099Z,23.23
2022-07-26T16:38:50.852Z,23.27
2022-07-26T16:41:17.625Z,23.23
2022-07-26T16:43:44.478Z,23.25
2022-07-26T16:46:11.278Z,23.21
2022-07-26T16:48:38.496Z,23.15
2022-07-26T16:51:05.378Z,23.20
2022-07-26T16:53:32.148Z,23.25
2022-07-26T16:55:59.146Z,23.29
2022-07-26T16:58:25.905Z,23.24
2022-07-26T17:00:53.037Z,23.23
2022-07-26T17:03:19.937Z,23.17
2022-07-26T17:05:47.752Z,23.13
2022-07-26T17:08:14.730Z,23.17
2022-07-26T17:10:41.880Z,23.15
2022-07-26T17:13:09.064Z,23.11
2022-07-26T17:15:35.811Z,23.10
2022-07-26T17:18:02.703Z,23.12
2022-07-26T17:20:29.444Z,23.14
2022-07-26T17:22:56.144Z,23.11
2022-07-26T17:25:22.847Z,23.10
2022-07-26T17:27:51.297Z,23.10
2022-07-26T17:30:18.208Z,23.11
2022-07-26T17:32:44.968Z,23.14
2022-07-26T17:35:11.988Z,23.15
2022-07-26T17:37:39.989Z,23.15
2022-07-26T17:40:08.192Z,23.17
2022-07-26T17:42:36.182Z,23.29
2022-07-26T17:45:03.480Z,23.24
2022-07-26T17:47:30.863Z,23.30
2022-07-26T17:50:26.328Z,23.34
2022-07-26T17:52:49.158Z,23.21
2022-07-26T17:55:16.050Z,23.24
2022-07-26T17:57:42.743Z,23.21
2022-07-26T18:00:09.830Z,23.24
2022-07-26T18:02:36.490Z,23.19
2022-07-26T18:05:03.583Z,23.19
2022-07-26T18:07:30.715Z,23.25
2022-07-26T18:09:57.605Z,23.19
2022-07-26T18:12:24.539Z,23.15
2022-07-26T18:14:51.282Z,23.14
2022-07-26T18:17:17.928Z,23.14
2022-07-26T18:19:44.971Z,23.21
2022-07-26T18:22:11.602Z,23.13
2022-07-26T18:24:38.309Z,23.12
2022-07-26T18:27:05.143Z,23.15
2022-07-26T18:29:32.679Z,23.19
2022-07-26T18:32:01.621Z,23.15
2022-07-26T18:34:28.755Z,23.18
2022-07-26T18:36:55.534Z,23.12
2022-07-26T18:39:32.971Z,23.12
2022-07-26T18:42:00.387Z,23.11
2022-07-26T18:44:27.167Z,23.16
2022-07-26T18:46:56.306Z,23.19
2022-07-26T18:49:31.517Z,23.15
2022-07-26T18:52:04.098Z,23.23
2022-07-26T18:54:35.488Z,23.20
2022-07-26T18:57:02.155Z,23.24
2022-07-26T18:59:31.329Z,23.16
2022-07-26T19:02:00.213Z,23.17
2022-07-26T19:04:27.521Z,23.12
2022-07-26T19:06:57.562Z,23.14
2022-07-26T19:09:30.847Z,23.16
2022-07-26T19:11:57.702Z,23.21
2022-07-26T19:14:24.540Z,23.23
2022-07-26T19:16:51.521Z,23.23
2022-07-26T19:19:18.728Z,23.23
2022-07-26T19:21:47.550Z,23.16
2022-07-26T19:24:14.597Z,23.15
2022-07-26T19:26:41.453Z,23.07
2022-07-26T19:29:08.644Z,23.07
2022-07-26T19:31:35.672Z,23.10
2022-07-26T19:34:03.833Z,23.05
2022-07-26T19:36:30.686Z,22.98
2022-07-26T19:38:57.780Z,23.03
2022-07-26T19:41:24.945Z,23.01
2022-07-26T19:43:51.787Z,23.05
2022-07-26T19:46:18.745Z,23.07
2022-07-26T19:48:45.710Z,23.12
2022-07-26T19:51:12.686Z,23.17
2022-07-26T19:53:39.467Z,23.24
2022-07-26T19:56:06.527Z,23.22
2022-07-26T19:58:33.567Z,23.24
2022-07-26T20:01:00.804Z,23.22
2022-07-26T20:03:27.702Z,23.16
2022-07-26T20:05:56.035Z,23.19
2022-07-26T20:08:23.066Z,23.17
2022-07-26T20:10:50.176Z,23.16
2022-07-26T20:13:16.994Z,23.17
2022-07-26T20:15:43.904Z,23.14
2022-07-26T20:18:10.791Z,23.12
2022-07-26T20:20:37.503Z,23.11
2022-07-26T20:23:06.248Z,23.15
2022-07-26T20:25:35.607Z,23.13
2022-07-26T20:28:02.315Z,23.09
2022-07-26T20:30:29.189Z,23.10
2022-07-26T20:32:55.934Z,23.05
2022-07-26T20:35:22.593Z,23.12
2022-07-26T20:37:49.217Z,23.06
2022-07-26T20:40:18.007Z,23.07
2022-07-26T20:42:45.338Z,23.09
2022-07-26T20:45:14.455Z,23.13
2022-07-26T20:47:41.849Z,23.18
2022-07-26T20:50:09.055Z,23.11
2022-07-26T20:52:35.967Z,23.09
2022-07-26T20:55:02.726Z,23.06
2022-07-26T20:57:29.520Z,23.08
2022-07-26T20:59:56.159Z,23.10
2022-07-26T21:02:22.881Z,23.08
2022-07-26T21:04:49.598Z,23.08
2022-07-26T21:07:16.398Z,23.09
2022-07-26T21:09:43.108Z,23.12
2022-07-26T21:12:09.938Z,23.06
2022-07-26T21:14:36.628Z,23.05
2022-07-26T21:17:06.617Z,23.02
2022-07-26T21:19:36.409Z,23.04
2022-07-26T21:22:03.085Z,23.02
2022-07-26T21:24:29.773Z,23.14
2022-07-26T21:26:56.553Z,23.04
2022-07-26T21:29:28.024Z,23.02
2022-07-26T21:31:54.726Z,23.00
2022-07-26T21:34:21.468Z,22.99
2022-07-26T21:36:48.145Z,22.97
2022-07-26T21:39:14.994Z,23.00
2022-07-26T21:41:41.791Z,22.98
2022-07-26T21:44:08.466Z,22.97
2022-07-26T21:46:35.178Z,22.98
2022-07-26T21:49:02.386Z,22.95
2022-07-26T21:51:29.045Z,22.93
2022-07-26T21:53:55.749Z,22.95
2022-07-26T21:56:22.448Z,22.98
2022-07-26T21:58:49.084Z,22.97
2022-07-26T22:01:15.965Z,22.92
2022-07-26T22:03:42.915Z,22.86
2022-07-26T22:06:09.935Z,22.94
2022-07-26T22:08:37.281Z,22.93
2022-07-26T22:11:04.353Z,22.97
2022-07-26T22:13:31.093Z,22.92
2022-07-26T22:15:57.762Z,22.89
2022-07-26T22:18:24.492Z,22.93
2022-07-26T22:20:51.254Z,23.03
2022-07-26T22:23:18.262Z,23.03
2022-07-26T22:25:45.329Z,22.85
2022-07-26T22:28:12.716Z,22.85
2022-07-26T22:30:45.629Z,22.90
2022-07-26T22:33:12.563Z,22.89
2022-07-26T22:35:39.359Z,22.84
2022-07-26T22:40:33.242Z,22.88
2022-07-26T22:43:00.073Z,22.90
2022-07-26T22:45:27.312Z,22.88
2022-07-26T22:47:55.892Z,22.87
2022-07-26T22:50:23.008Z,22.79
2022-07-26T22:52:49.776Z,22.81
2022-07-26T22:55:16.622Z,22.86
2022-07-26T22:57:44.418Z,22.82
2022-07-26T23:00:12.046Z,22.82
2022-07-26T23:05:06.316Z,22.84
2022-07-26T23:07:33.883Z,22.89
2022-07-26T23:12:27.428Z,22.80
2022-07-26T23:14:54.155Z,22.84
2022-07-26T23:17:20.888Z,22.81
2022-07-26T23:19:47.756Z,22.88
2022-07-26T23:22:14.850Z,22.79
2022-07-26T23:24:43.559Z,22.81
2022-07-26T23:27:10.612Z,22.80
2022-07-26T23:29:37.306Z,22.76
2022-07-26T23:32:04.528Z,22.75
2022-07-26T23:34:31.295Z,22.81
2022-07-26T23:36:57.931Z,22.82
2022-07-26T23:39:27.177Z,22.75
2022-07-26T23:41:53.882Z,22.80
2022-07-26T23:44:20.624Z,22.83
2022-07-26T23:46:47.391Z,22.82
2022-07-26T23:49:14.688Z,22.74
2022-07-26T23:51:41.645Z,22.70
2022-07-26T23:54:08.345Z,22.74
2022-07-26T23:56:34.980Z,22.76
2022-07-26T23:59:02.048Z,22.74
